createdAt,value
2023-02-06T00:00:54.647Z,1.73
2023-02-06T00:03:21.317Z,1.60
2023-02-06T00:06:00.825Z,2.10
2023-02-06T00:08:28.256Z,2.67
2023-02-06T00:10:55.235Z,2.13
2023-02-06T00:13:22.527Z,1.83
2023-02-06T00:15:49.173Z,1.75
2023-02-06T00:18:15.843Z,1.67
2023-02-06T00:20:42.410Z,1.65
2023-02-06T00:23:09.029Z,1.50
2023-02-06T00:25:35.926Z,1.40
2023-02-06T00:28:02.690Z,1.40
2023-02-06T00:30:29.530Z,1.15
2023-02-06T00:32:56.118Z,1.52
2023-02-06T00:35:22.734Z,1.77
2023-02-06T00:37:49.568Z,1.33
2023-02-06T00:40:17.005Z,1.75
2023-02-06T00:42:43.728Z,1.23
2023-02-06T00:45:10.959Z,1.27
2023-02-06T00:47:37.580Z,1.30
2023-02-06T00:50:04.677Z,1.40
2023-02-06T00:52:31.502Z,1.35
2023-02-06T00:54:58.066Z,1.20
2023-02-06T00:57:24.612Z,1.42
2023-02-06T00:59:51.202Z,1.45
2023-02-06T01:02:17.779Z,1.20
2023-02-06T01:04:44.316Z,1.10
2023-02-06T01:07:10.910Z,0.93
2023-02-06T01:09:37.578Z,1.20
2023-02-06T01:12:04.348Z,1.17
2023-02-06T01:14:30.908Z,1.35
2023-02-06T01:16:57.448Z,1.90
2023-02-06T01:19:24.000Z,1.40
2023-02-06T01:21:50.725Z,1.20
2023-02-06T01:24:17.246Z,1.27
2023-02-06T01:26:43.825Z,1.42
2023-02-06T01:29:10.490Z,1.25
2023-02-06T01:31:37.219Z,1.30
2023-02-06T01:34:03.880Z,1.38
2023-02-06T01:36:30.563Z,1.27
2023-02-06T01:38:57.230Z,1.27
2023-02-06T01:41:24.130Z,1.02
2023-02-06T01:44:13.388Z,1.05
2023-02-06T01:46:41.431Z,1.20
2023-02-06T01:49:12.483Z,1.45
2023-02-06T01:51:40.219Z,1.33
2023-02-06T01:54:07.696Z,1.00
2023-02-06T01:56:39.739Z,1.17
2023-02-06T01:59:06.650Z,1.35
2023-02-06T02:01:34.091Z,0.88
2023-02-06T02:04:06.704Z,1.30
2023-02-06T02:06:34.736Z,1.13
2023-02-06T02:09:03.225Z,0.90
2023-02-06T02:11:33.263Z,1.15
2023-02-06T02:14:01.932Z,0.88
2023-02-06T02:16:31.399Z,1.00
2023-02-06T02:19:22.792Z,1.33
2023-02-06T02:24:41.607Z,0.90
2023-02-06T02:27:26.396Z,0.98
2023-02-06T02:29:52.942Z,1.10
2023-02-06T02:32:44.551Z,1.17
2023-02-06T02:35:29.873Z,1.15
2023-02-06T02:38:06.299Z,1.42
2023-02-06T02:40:57.298Z,1.73
2023-02-06T02:43:26.770Z,1.10
2023-02-06T02:46:04.382Z,1.55
2023-02-06T02:48:39.857Z,1.63
2023-02-06T02:51:08.062Z,1.48
2023-02-06T02:53:34.754Z,1.65
2023-02-06T02:56:01.543Z,1.50
2023-02-06T02:58:33.822Z,1.45
2023-02-06T03:01:08.980Z,1.38
2023-02-06T03:03:40.392Z,1.50
2023-02-06T03:06:12.830Z,1.45
2023-02-06T03:09:01.029Z,1.30
2023-02-06T03:11:27.947Z,1.20
2023-02-06T03:13:57.323Z,1.20
2023-02-06T03:16:29.841Z,1.23
2023-02-06T03:19:11.187Z,1.17
2023-02-06T03:21:39.379Z,1.45
2023-02-06T03:24:13.292Z,0.98
2023-02-06T03:26:41.754Z,1.55
2023-02-06T03:29:12.523Z,1.40
2023-02-06T03:31:50.015Z,1.35
2023-02-06T03:34:30.534Z,1.40
2023-02-06T03:36:57.417Z,1.00
2023-02-06T03:39:24.076Z,1.52
2023-02-06T03:41:51.879Z,1.38
2023-02-06T03:44:24.252Z,1.13
2023-02-06T03:46:53.280Z,1.83
2023-02-06T03:49:24.301Z,1.30
2023-02-06T03:52:07.601Z,1.58
2023-02-06T03:54:38.370Z,1.10
2023-02-06T03:57:07.547Z,1.70
2023-02-06T03:59:34.300Z,1.40
2023-02-06T04:02:03.909Z,1.55
2023-02-06T04:04:41.973Z,1.00
2023-02-06T04:07:23.877Z,1.15
2023-02-06T04:09:50.570Z,1.40
2023-02-06T04:12:17.495Z,1.60
2023-02-06T04:14:44.673Z,1.20
2023-02-06T04:17:12.294Z,1.20
2023-02-06T04:19:39.446Z,1.65
2023-02-06T04:22:07.130Z,1.50
2023-02-06T04:24:33.711Z,1.33
2023-02-06T04:27:00.392Z,1.77
2023-02-06T04:29:27.035Z,2.17
2023-02-06T04:31:53.598Z,1.90
2023-02-06T04:34:20.130Z,1.60
2023-02-06T04:36:46.694Z,1.85
2023-02-06T04:39:13.249Z,1.75
2023-02-06T04:41:39.821Z,2.03
2023-02-06T04:44:06.408Z,1.90
2023-02-06T04:46:32.986Z,2.05
2023-02-06T04:48:59.570Z,1.30
2023-02-06T04:51:26.207Z,1.70
2023-02-06T04:53:52.760Z,2.10
2023-02-06T04:56:19.379Z,1.75
2023-02-06T04:58:45.980Z,1.60
2023-02-06T05:01:12.711Z,1.67
2023-02-06T05:03:39.466Z,1.27
2023-02-06T05:06:06.337Z,1.77
2023-02-06T05:08:32.897Z,1.50
2023-02-06T05:10:59.493Z,1.50
2023-02-06T05:13:26.242Z,2.00
2023-02-06T05:15:53.320Z,1.53
2023-02-06T05:18:20.000Z,1.58
2023-02-06T05:20:46.901Z,1.70
2023-02-06T05:23:13.482Z,1.98
2023-02-06T05:25:42.202Z,1.70
2023-02-06T05:28:09.134Z,1.67
2023-02-06T05:30:36.390Z,1.85
2023-02-06T05:33:03.029Z,1.35
2023-02-06T05:35:29.930Z,1.63
2023-02-06T05:37:57.445Z,1.80
2023-02-06T05:40:24.319Z,1.75
2023-02-06T05:42:51.175Z,1.98
2023-02-06T05:45:17.823Z,1.90
2023-02-06T05:47:44.438Z,2.00
2023-02-06T05:50:11.016Z,1.98
2023-02-06T05:52:37.615Z,2.75
2023-02-06T05:55:04.289Z,2.78
2023-02-06T05:57:31.070Z,3.13
2023-02-06T05:59:57.606Z,2.20
2023-02-06T06:02:24.407Z,2.40
2023-02-06T06:04:51.055Z,2.20
2023-02-06T06:07:17.723Z,2.15
2023-02-06T06:09:44.286Z,2.30
2023-02-06T06:12:10.948Z,2.00
2023-02-06T06:14:37.475Z,2.15
2023-02-06T06:17:04.158Z,2.17
2023-02-06T06:19:30.803Z,2.22
2023-02-06T06:21:58.376Z,2.00
2023-02-06T06:24:25.819Z,1.75
2023-02-06T06:26:52.641Z,2.45
2023-02-06T06:29:19.264Z,2.38
2023-02-06T06:31:46.067Z,2.67
2023-02-06T06:34:12.803Z,2.90
2023-02-06T06:36:39.460Z,2.35
2023-02-06T06:39:06.213Z,2.88
2023-02-06T06:41:32.865Z,3.08
2023-02-06T06:43:59.634Z,3.15
2023-02-06T06:46:26.677Z,3.72
2023-02-06T06:48:53.321Z,2.78
2023-02-06T06:51:20.219Z,2.55
2023-02-06T06:53:46.802Z,2.30
2023-02-06T06:56:14.967Z,3.20
2023-02-06T06:58:42.253Z,2.80
2023-02-06T07:01:09.162Z,2.28
2023-02-06T07:03:36.754Z,3.05
2023-02-06T07:06:04.274Z,2.83
2023-02-06T07:08:31.500Z,3.28
2023-02-06T07:10:58.469Z,2.55
2023-02-06T07:13:25.177Z,2.42
2023-02-06T07:15:51.744Z,2.45
2023-02-06T07:18:18.509Z,2.28
2023-02-06T07:20:45.155Z,2.25
2023-02-06T07:23:11.720Z,2.70
2023-02-06T07:25:38.533Z,3.28
2023-02-06T07:28:05.401Z,2.50
2023-02-06T07:30:31.985Z,2.28
2023-02-06T07:32:58.567Z,2.53
2023-02-06T07:35:25.130Z,3.58
2023-02-06T07:37:55.182Z,3.13
2023-02-06T07:40:22.369Z,3.17
2023-02-06T07:42:49.117Z,3.03
2023-02-06T07:45:15.865Z,3.00
2023-02-06T07:47:42.894Z,2.42
2023-02-06T07:50:10.293Z,3.03
2023-02-06T07:52:37.004Z,3.05
2023-02-06T07:55:04.654Z,2.80
2023-02-06T07:57:31.334Z,2.75
2023-02-06T07:59:57.935Z,2.65
2023-02-06T08:02:25.020Z,2.78
2023-02-06T08:04:51.544Z,2.65
2023-02-06T08:07:18.138Z,2.80
2023-02-06T08:09:45.151Z,2.35
2023-02-06T08:12:12.106Z,2.88
2023-02-06T08:14:38.977Z,2.47
2023-02-06T08:17:05.857Z,1.98
2023-02-06T08:19:32.381Z,3.70
2023-02-06T08:21:58.934Z,2.35
2023-02-06T08:24:25.806Z,4.90
2023-02-06T08:26:52.384Z,2.83
2023-02-06T08:29:19.124Z,1.98
2023-02-06T08:31:45.900Z,2.13
2023-02-06T08:34:14.996Z,2.45
2023-02-06T08:36:43.689Z,2.00
2023-02-06T08:39:13.672Z,2.10
2023-02-06T08:41:43.590Z,2.15
2023-02-06T08:44:16.137Z,2.42
2023-02-06T08:46:44.451Z,2.03
2023-02-06T08:49:19.077Z,2.00
2023-02-06T08:51:46.282Z,1.70
2023-02-06T08:54:19.398Z,1.63
2023-02-06T08:56:46.310Z,1.60
2023-02-06T08:59:15.332Z,1.80
2023-02-06T09:01:45.367Z,2.33
2023-02-06T09:04:14.079Z,2.53
2023-02-06T09:06:43.450Z,2.72
2023-02-06T09:09:11.135Z,2.45
2023-02-06T09:11:37.950Z,2.25
2023-02-06T09:14:06.395Z,2.60
2023-02-06T09:16:34.048Z,2.25
2023-02-06T09:19:01.671Z,2.22
2023-02-06T09:21:33.662Z,2.22
2023-02-06T09:24:02.352Z,2.38
2023-02-06T09:26:38.891Z,2.05
2023-02-06T09:29:09.527Z,2.72
2023-02-06T09:31:39.199Z,2.35
2023-02-06T09:34:06.720Z,2.47
2023-02-06T09:36:35.116Z,2.70
2023-02-06T09:39:04.762Z,2.50
2023-02-06T09:41:37.646Z,2.33
2023-02-06T09:44:13.517Z,2.80
2023-02-06T09:46:54.214Z,2.33
2023-02-06T09:49:26.078Z,2.22
2023-02-06T09:51:55.652Z,2.40
2023-02-06T09:54:40.916Z,2.13
2023-02-06T09:57:15.429Z,2.33
2023-02-06T09:59:48.186Z,2.80
2023-02-06T10:02:33.096Z,2.42
2023-02-06T10:05:26.007Z,2.85
2023-02-06T10:08:19.238Z,2.50
2023-02-06T10:10:51.967Z,2.92
2023-02-06T10:13:24.278Z,2.42
2023-02-06T10:15:55.619Z,2.58
2023-02-06T10:18:48.574Z,2.35
2023-02-06T10:21:38.948Z,2.10
2023-02-06T10:24:14.329Z,2.47
2023-02-06T10:26:41.939Z,2.20
2023-02-06T10:29:20.002Z,2.17
2023-02-06T10:31:55.809Z,2.22
2023-02-06T10:34:45.994Z,2.20
2023-02-06T10:37:22.820Z,2.65
2023-02-06T10:39:55.212Z,2.22
2023-02-06T10:43:00.324Z,2.33
2023-02-06T10:45:32.807Z,2.22
2023-02-06T10:48:10.623Z,2.13
2023-02-06T10:50:44.363Z,2.08
2023-02-06T10:53:32.819Z,2.17
2023-02-06T10:56:12.747Z,2.10
2023-02-06T10:59:22.300Z,2.08
2023-02-06T11:01:53.948Z,2.13
2023-02-06T11:04:27.427Z,2.03
2023-02-06T11:07:00.601Z,2.28
2023-02-06T11:09:27.218Z,1.95
2023-02-06T11:11:56.806Z,1.60
2023-02-06T11:14:28.645Z,1.73
2023-02-06T11:16:59.516Z,2.05
2023-02-06T11:19:30.992Z,1.60
2023-02-06T11:22:12.573Z,1.80
2023-02-06T11:24:57.654Z,1.73
2023-02-06T11:27:24.603Z,2.15
2023-02-06T11:29:52.398Z,1.98
2023-02-06T11:33:02.548Z,1.60
2023-02-06T11:35:37.283Z,1.70
2023-02-06T11:38:12.948Z,1.60
2023-02-06T11:40:39.615Z,1.48
2023-02-06T11:43:12.262Z,1.60
2023-02-06T11:45:40.935Z,2.00
2023-02-06T11:48:31.843Z,1.73
2023-02-06T11:50:58.752Z,1.63
2023-02-06T11:53:25.411Z,1.67
2023-02-06T11:56:20.451Z,1.80
2023-02-06T11:59:00.448Z,1.55
2023-02-06T12:01:27.064Z,1.50
2023-02-06T12:03:58.193Z,1.45
2023-02-06T12:06:34.935Z,1.83
2023-02-06T12:09:05.631Z,1.90
2023-02-06T12:12:04.488Z,2.08
2023-02-06T12:14:31.016Z,1.50
2023-02-06T12:16:59.293Z,1.42
2023-02-06T12:19:35.516Z,1.63
2023-02-06T12:22:12.286Z,1.70
2023-02-06T12:24:43.811Z,1.77
2023-02-06T12:27:19.301Z,1.45
2023-02-06T12:30:06.907Z,1.40
2023-02-06T12:32:40.828Z,1.50
2023-02-06T12:35:21.597Z,1.50
2023-02-06T12:38:01.123Z,1.70
2023-02-06T12:40:45.961Z,1.60
2023-02-06T12:43:15.893Z,1.48
2023-02-06T12:45:53.982Z,1.75
2023-02-06T12:48:28.864Z,1.60
2023-02-06T12:51:10.177Z,1.67
2023-02-06T12:53:43.025Z,1.35
2023-02-06T12:56:21.517Z,1.30
2023-02-06T12:59:06.857Z,1.27
2023-02-06T13:01:52.876Z,1.45
2023-02-06T13:04:24.860Z,1.48
2023-02-06T13:07:05.178Z,1.42
2023-02-06T13:09:41.833Z,1.65
2023-02-06T13:12:20.330Z,1.45
2023-02-06T13:14:54.214Z,1.35
2023-02-06T13:17:34.450Z,1.15
2023-02-06T13:20:11.683Z,1.30
2023-02-06T13:22:49.528Z,1.45
2023-02-06T13:25:25.122Z,1.27
2023-02-06T13:27:53.240Z,1.33
2023-02-06T13:30:28.733Z,1.27
2023-02-06T13:33:16.390Z,1.10
2023-02-06T13:36:05.593Z,1.00
2023-02-06T13:38:35.129Z,1.10
2023-02-06T13:41:16.982Z,0.93
2023-02-06T13:43:57.738Z,1.05
2023-02-06T13:47:00.534Z,1.48
2023-02-06T13:49:39.145Z,1.17
2023-02-06T13:52:28.810Z,1.40
2023-02-06T13:55:14.366Z,1.00
2023-02-06T13:58:02.739Z,1.38
2023-02-06T14:00:32.468Z,1.00
2023-02-06T14:03:38.385Z,1.17
2023-02-06T14:06:11.000Z,0.93
2023-02-06T14:08:43.628Z,1.33
2023-02-06T14:11:25.311Z,1.08
2023-02-06T14:14:01.079Z,1.20
2023-02-06T14:16:54.189Z,1.17
2023-02-06T14:19:57.137Z,1.40
2023-02-06T14:22:46.670Z,1.40
2023-02-06T14:25:27.070Z,1.17
2023-02-06T14:27:59.881Z,1.17
2023-02-06T14:30:34.788Z,1.60
2023-02-06T14:33:25.486Z,1.85
2023-02-06T14:36:20.941Z,1.38
2023-02-06T14:39:19.148Z,1.85
2023-02-06T14:41:45.948Z,1.60
2023-02-06T14:44:22.330Z,1.40
2023-02-06T14:46:48.991Z,1.58
2023-02-06T14:49:23.817Z,1.50
2023-02-06T14:51:52.571Z,1.60
2023-02-06T14:54:34.740Z,1.60
2023-02-06T14:57:04.864Z,1.63
2023-02-06T14:59:32.397Z,1.42
2023-02-06T15:01:59.893Z,1.60
2023-02-06T15:04:30.630Z,1.45
2023-02-06T15:07:00.412Z,1.98
2023-02-06T15:09:37.794Z,1.70
2023-02-06T15:12:18.910Z,1.60
2023-02-06T15:14:55.177Z,1.42
2023-02-06T15:17:24.721Z,1.60
2023-02-06T15:19:51.298Z,1.70
2023-02-06T15:22:28.623Z,1.50
2023-02-06T15:25:07.553Z,1.80
2023-02-06T15:27:36.740Z,1.33
2023-02-06T15:30:18.099Z,1.50
2023-02-06T15:32:50.050Z,1.52
2023-02-06T15:35:35.944Z,1.83
2023-02-06T15:38:10.851Z,1.52
2023-02-06T15:40:42.251Z,1.55
2023-02-06T15:43:15.375Z,1.80
2023-02-06T15:45:44.128Z,2.13
2023-02-06T15:48:34.087Z,2.10
2023-02-06T15:51:16.021Z,1.50
2023-02-06T15:53:44.285Z,1.48
2023-02-06T15:56:23.395Z,2.17
2023-02-06T15:58:58.097Z,1.58
2023-02-06T16:01:26.392Z,2.15
2023-02-06T16:03:58.349Z,2.10
2023-02-06T16:06:24.990Z,1.80
2023-02-06T16:08:56.957Z,1.88
2023-02-06T16:11:47.468Z,2.28
2023-02-06T16:14:41.329Z,1.77
2023-02-06T16:17:14.197Z,1.80
2023-02-06T16:19:54.135Z,2.10
2023-02-06T16:22:28.047Z,1.90
2023-02-06T16:25:13.061Z,2.08
2023-02-06T16:27:45.674Z,1.95
2023-02-06T16:30:34.215Z,1.63
2023-02-06T16:33:21.697Z,1.60
2023-02-06T16:35:49.141Z,2.60
2023-02-06T16:38:15.695Z,2.05
2023-02-06T16:40:42.270Z,1.80
2023-02-06T16:43:11.425Z,2.05
2023-02-06T16:45:38.007Z,1.90
2023-02-06T16:48:11.791Z,1.95
2023-02-06T16:50:42.162Z,1.70
2023-02-06T16:53:24.390Z,1.50
2023-02-06T16:55:51.587Z,1.63
2023-02-06T16:58:23.719Z,1.75
2023-02-06T17:00:51.729Z,1.52
2023-02-06T17:03:18.338Z,1.70
2023-02-06T17:05:47.297Z,1.63
2023-02-06T17:08:17.711Z,2.03
2023-02-06T17:10:45.421Z,2.55
2023-02-06T17:13:23.545Z,2.33
2023-02-06T17:15:53.146Z,1.80
2023-02-06T17:18:21.753Z,2.35
2023-02-06T17:20:52.858Z,1.60
2023-02-06T17:25:46.602Z,2.20
2023-02-06T17:28:16.997Z,2.42
2023-02-06T17:30:44.469Z,2.60
2023-02-06T17:33:11.478Z,2.30
2023-02-06T17:35:38.544Z,2.05
2023-02-06T17:38:07.050Z,1.92
2023-02-06T17:40:35.871Z,1.90
2023-02-06T17:43:04.689Z,2.17
2023-02-06T17:45:31.803Z,2.00
2023-02-06T17:47:58.406Z,4.07
2023-02-06T17:50:27.658Z,3.33
2023-02-06T17:52:55.787Z,2.88
2023-02-06T17:55:24.064Z,3.17
2023-02-06T17:57:51.352Z,2.63
2023-02-06T18:00:19.479Z,2.72
2023-02-06T18:02:46.265Z,2.55
2023-02-06T18:05:12.904Z,2.70
2023-02-06T18:07:39.985Z,3.17
2023-02-06T18:10:07.445Z,3.25
2023-02-06T18:12:34.476Z,3.88
2023-02-06T18:15:01.184Z,3.45
2023-02-06T18:17:27.770Z,3.33
2023-02-06T18:19:54.328Z,2.83
2023-02-06T18:22:21.850Z,3.45
2023-02-06T18:24:49.958Z,3.22
2023-02-06T18:27:17.722Z,3.28
2023-02-06T18:29:50.120Z,2.80
2023-02-06T18:32:19.150Z,2.33
2023-02-06T18:34:46.364Z,3.05
2023-02-06T18:37:13.067Z,2.92
2023-02-06T18:39:39.772Z,3.20
2023-02-06T18:42:25.215Z,2.75
2023-02-06T18:44:51.883Z,2.97
2023-02-06T18:47:18.994Z,2.50
2023-02-06T18:49:45.953Z,2.38
2023-02-06T18:52:12.623Z,3.83
2023-02-06T18:54:39.572Z,2.40
2023-02-06T18:57:06.567Z,3.20
2023-02-06T18:59:33.217Z,2.83
2023-02-06T19:01:59.923Z,3.03
2023-02-06T19:04:26.689Z,2.35
2023-02-06T19:06:53.297Z,3.22
2023-02-06T19:09:20.157Z,2.63
2023-02-06T19:11:47.782Z,3.13
2023-02-06T19:14:17.007Z,3.23
2023-02-06T19:16:47.344Z,2.30
2023-02-06T19:19:14.625Z,3.50
2023-02-06T19:21:41.902Z,3.00
2023-02-06T19:24:12.949Z,3.05
2023-02-06T19:26:39.590Z,3.42
2023-02-06T19:29:06.398Z,2.90
2023-02-06T19:31:34.950Z,2.37
2023-02-06T19:34:02.330Z,3.38
2023-02-06T19:36:29.983Z,3.67
2023-02-06T19:38:59.912Z,2.77
2023-02-06T19:41:28.469Z,3.10
2023-02-06T19:43:56.950Z,3.20
2023-02-06T19:46:26.043Z,3.80
2023-02-06T19:48:54.356Z,3.23
2023-02-06T19:51:34.632Z,3.57
2023-02-06T19:54:01.641Z,3.57
2023-02-06T19:56:32.696Z,3.17
2023-02-06T20:01:29.571Z,3.17
2023-02-06T20:04:01.088Z,3.37
2023-02-06T20:06:29.456Z,3.40
2023-02-06T20:08:56.767Z,3.20
2023-02-06T20:11:23.764Z,3.53
2023-02-06T20:13:55.530Z,3.33
2023-02-06T20:16:25.278Z,2.87
2023-02-06T20:18:53.204Z,3.23
2023-02-06T20:21:27.925Z,3.00
2023-02-06T20:23:56.438Z,2.83
2023-02-06T20:26:26.613Z,3.30
2023-02-06T20:28:53.793Z,3.58
2023-02-06T20:31:21.304Z,3.37
2023-02-06T20:33:49.066Z,4.13
2023-02-06T20:36:18.861Z,2.83
2023-02-06T20:38:59.627Z,3.10
2023-02-06T20:41:30.926Z,2.95
2023-02-06T20:43:59.641Z,2.83
2023-02-06T20:46:28.403Z,2.90
2023-02-06T20:49:12.133Z,2.87
2023-02-06T20:51:38.706Z,2.97
2023-02-06T20:54:06.574Z,3.37
2023-02-06T20:56:33.672Z,3.20
2023-02-06T20:59:01.340Z,3.80
2023-02-06T21:01:30.773Z,3.50
2023-02-06T21:04:00.282Z,3.23
2023-02-06T21:06:28.060Z,3.77
2023-02-06T21:09:00.169Z,3.67
2023-02-06T21:11:34.086Z,3.47
2023-02-06T21:14:03.084Z,2.57
2023-02-06T21:16:31.297Z,3.97
2023-02-06T21:18:59.247Z,2.57
2023-02-06T21:21:26.762Z,3.47
2023-02-06T21:23:55.676Z,3.33
2023-02-06T21:26:23.800Z,3.73
2023-02-06T21:28:51.616Z,3.40
2023-02-06T21:31:34.162Z,3.17
2023-02-06T21:34:15.350Z,3.40
2023-02-06T21:36:42.685Z,4.07
2023-02-06T21:39:09.994Z,4.20
2023-02-06T21:41:37.192Z,2.97
2023-02-06T21:44:04.124Z,3.47
2023-02-06T21:46:30.994Z,3.10
2023-02-06T21:48:57.768Z,2.43
2023-02-06T21:51:24.630Z,2.90
2023-02-06T21:53:51.447Z,2.33
2023-02-06T21:56:23.871Z,2.80
2023-02-06T21:58:51.156Z,2.77
2023-02-06T22:01:21.190Z,3.10
2023-02-06T22:03:48.542Z,2.75
2023-02-06T22:06:15.893Z,2.03
2023-02-06T22:08:45.912Z,2.20
2023-02-06T22:11:24.870Z,2.33
2023-02-06T22:13:52.008Z,2.37
2023-02-06T22:16:22.831Z,2.37
2023-02-06T22:18:50.142Z,2.60
2023-02-06T22:21:20.443Z,2.33
2023-02-06T22:23:48.374Z,2.13
2023-02-06T22:26:17.485Z,1.77
2023-02-06T22:28:44.859Z,1.77
2023-02-06T22:31:15.212Z,2.07
2023-02-06T22:33:42.758Z,2.30
2023-02-06T22:36:14.868Z,1.87
2023-02-06T22:38:43.018Z,2.00
2023-02-06T22:41:15.715Z,2.23
2023-02-06T22:43:43.586Z,2.17
2023-02-06T22:46:16.811Z,2.17
2023-02-06T22:48:43.388Z,2.37
2023-02-06T22:51:10.505Z,1.90
2023-02-06T22:53:38.184Z,3.57
2023-02-06T22:56:26.564Z,2.17
2023-02-06T22:59:23.353Z,1.80
2023-02-06T23:01:53.102Z,2.37
2023-02-06T23:04:22.969Z,1.80
2023-02-06T23:06:50.698Z,2.03
2023-02-06T23:09:24.271Z,2.77
2023-02-06T23:11:51.754Z,2.23
2023-02-06T23:14:18.929Z,1.87
2023-02-06T23:16:46.172Z,1.80
2023-02-06T23:19:14.270Z,2.97
2023-02-06T23:21:42.648Z,2.33
2023-02-06T23:24:10.355Z,2.47
2023-02-06T23:26:37.617Z,1.87
2023-02-06T23:29:07.000Z,2.30
2023-02-06T23:31:34.004Z,2.13
2023-02-06T23:34:00.757Z,2.20
2023-02-06T23:36:28.726Z,2.50
2023-02-06T23:38:55.878Z,2.23
2023-02-06T23:41:25.522Z,2.00
2023-02-06T23:43:55.173Z,1.90
2023-02-06T23:46:22.401Z,2.00
2023-02-06T23:48:49.462Z,1.80
2023-02-06T23:51:17.499Z,2.13
2023-02-06T23:53:44.256Z,1.90
2023-02-06T23:56:14.360Z,2.00
2023-02-06T23:58:41.365Z,2.30
